createdAt,value
2022-09-02T00:01:03.549Z,24.53
2022-09-02T00:03:35.020Z,24.58
2022-09-02T00:06:04.578Z,24.53
2022-09-02T00:08:32.484Z,24.53
2022-09-02T00:11:03.557Z,24.51
2022-09-02T00:13:34.952Z,24.70
2022-09-02T00:16:07.153Z,24.61
2022-09-02T00:18:35.890Z,24.59
2022-09-02T00:21:03.967Z,24.43
2022-09-02T00:23:31.664Z,24.72
2022-09-02T00:25:59.379Z,24.71
2022-09-02T00:28:26.981Z,24.71
2022-09-02T00:30:54.784Z,24.59
2022-09-02T00:33:22.880Z,24.66
2022-09-02T00:35:50.504Z,24.52
2022-09-02T00:38:18.329Z,24.37
2022-09-02T00:40:50.561Z,24.33
2022-09-02T00:43:58.437Z,24.35
2022-09-02T00:46:30.410Z,24.40
2022-09-02T00:49:10.065Z,24.42
2022-09-02T00:51:50.980Z,24.35
2022-09-02T00:54:22.998Z,24.34
2022-09-02T00:56:53.972Z,24.27
2022-09-02T00:59:58.924Z,24.13
2022-09-02T01:02:29.075Z,24.21
2022-09-02T01:04:58.692Z,24.31
2022-09-02T01:07:34.009Z,24.30
2022-09-02T01:10:04.139Z,24.27
2022-09-02T01:12:33.386Z,24.28
2022-09-02T01:15:01.307Z,24.30
2022-09-02T01:17:34.816Z,24.36
2022-09-02T01:20:12.454Z,24.26
2022-09-02T01:22:42.702Z,24.24
2022-09-02T01:25:21.117Z,24.36
2022-09-02T01:27:52.464Z,24.37
2022-09-02T01:30:25.278Z,24.39
2022-09-02T01:32:53.715Z,24.35
2022-09-02T01:35:21.479Z,24.34
2022-09-02T01:37:55.396Z,24.35
2022-09-02T01:40:26.750Z,24.32
2022-09-02T01:42:58.700Z,24.43
2022-09-02T01:45:27.920Z,24.47
2022-09-02T01:47:56.196Z,24.47
2022-09-02T01:50:24.296Z,24.57
2022-09-02T01:52:52.440Z,24.58
2022-09-02T01:55:20.323Z,24.53
2022-09-02T01:57:48.024Z,24.60
2022-09-02T02:00:16.622Z,24.64
2022-09-02T02:02:45.050Z,24.70
2022-09-02T02:05:14.232Z,24.66
2022-09-02T02:07:44.421Z,24.76
2022-09-02T02:10:14.786Z,24.69
2022-09-02T02:12:44.021Z,24.58
2022-09-02T02:15:18.325Z,24.56
2022-09-02T02:17:49.777Z,24.51
2022-09-02T02:20:19.775Z,24.61
2022-09-02T02:22:47.586Z,24.60
2022-09-02T02:25:16.690Z,24.43
2022-09-02T02:27:45.682Z,24.39
2022-09-02T02:30:16.508Z,24.43
2022-09-02T02:32:50.099Z,24.42
2022-09-02T02:35:21.260Z,24.42
2022-09-02T02:37:52.748Z,24.35
2022-09-02T02:40:24.535Z,24.30
2022-09-02T02:42:53.843Z,24.66
2022-09-02T02:45:24.025Z,24.57
2022-09-02T02:47:55.338Z,24.56
2022-09-02T02:50:25.263Z,24.41
2022-09-02T02:52:54.942Z,24.29
2022-09-02T02:55:26.712Z,24.42
2022-09-02T02:57:57.065Z,24.43
2022-09-02T03:00:31.900Z,24.15
2022-09-02T03:03:04.938Z,24.22
2022-09-02T03:05:33.879Z,24.26
2022-09-02T03:08:10.576Z,24.42
2022-09-02T03:10:41.147Z,24.40
2022-09-02T03:13:11.667Z,24.36
2022-09-02T03:15:40.938Z,24.62
2022-09-02T03:18:11.636Z,24.40
2022-09-02T03:20:41.577Z,24.29
2022-09-02T03:23:12.579Z,24.21
2022-09-02T03:25:45.840Z,24.30
2022-09-02T03:28:33.842Z,24.15
2022-09-02T03:31:03.610Z,24.20
2022-09-02T03:33:32.401Z,24.03
2022-09-02T03:36:00.245Z,23.92
2022-09-02T03:38:32.008Z,23.89
2022-09-02T03:40:59.771Z,24.02
2022-09-02T03:43:27.489Z,24.18
2022-09-02T03:45:55.773Z,23.98
2022-09-02T03:48:24.844Z,23.99
2022-09-02T03:50:53.213Z,24.05
2022-09-02T03:53:21.753Z,23.99
2022-09-02T03:55:55.475Z,24.02
2022-09-02T03:58:28.972Z,23.79
2022-09-02T04:00:59.048Z,23.95
2022-09-02T04:03:27.317Z,23.75
2022-09-02T04:05:55.479Z,23.80
2022-09-02T04:08:26.514Z,23.78
2022-09-02T04:10:56.975Z,23.72
2022-09-02T04:13:24.751Z,23.69
2022-09-02T04:15:52.538Z,23.89
2022-09-02T04:18:23.146Z,23.70
2022-09-02T04:20:52.749Z,23.83
2022-09-02T04:23:21.410Z,23.78
2022-09-02T04:25:49.656Z,23.85
2022-09-02T04:28:18.518Z,23.90
2022-09-02T04:30:48.333Z,24.05
2022-09-02T04:33:16.542Z,23.93
2022-09-02T04:35:49.472Z,23.92
2022-09-02T04:38:19.487Z,24.13
2022-09-02T04:40:48.881Z,24.10
2022-09-02T04:43:21.848Z,24.23
2022-09-02T04:45:49.653Z,24.32
2022-09-02T04:48:19.917Z,24.35
2022-09-02T04:50:49.330Z,24.40
2022-09-02T04:53:18.325Z,24.75
2022-09-02T04:55:46.004Z,24.39
2022-09-02T04:58:17.909Z,24.70
2022-09-02T05:00:49.089Z,24.56
2022-09-02T05:03:19.070Z,24.66
2022-09-02T05:05:48.325Z,24.69
2022-09-02T05:08:17.662Z,24.84
2022-09-02T05:10:50.573Z,25.12
2022-09-02T05:13:18.720Z,24.80
2022-09-02T05:15:47.460Z,25.13
2022-09-02T05:18:18.475Z,24.98
2022-09-02T05:20:46.948Z,24.97
2022-09-02T05:23:14.934Z,25.10
2022-09-02T05:25:44.741Z,25.18
2022-09-02T05:28:13.190Z,25.28
2022-09-02T05:30:43.365Z,25.19
2022-09-02T05:33:13.727Z,25.33
2022-09-02T05:35:46.029Z,25.50
2022-09-02T05:38:17.778Z,25.38
2022-09-02T05:40:47.438Z,25.39
2022-09-02T05:43:15.314Z,25.85
2022-09-02T05:45:43.689Z,25.66
2022-09-02T05:48:30.179Z,25.75
2022-09-02T05:50:58.900Z,25.81
2022-09-02T05:53:29.621Z,25.65
2022-09-02T05:55:58.976Z,25.74
2022-09-02T05:58:26.517Z,25.60
2022-09-02T06:00:54.952Z,25.69
2022-09-02T06:03:22.686Z,25.58
2022-09-02T06:06:03.019Z,25.78
2022-09-02T06:08:35.293Z,26.27
2022-09-02T06:11:04.757Z,26.33
2022-09-02T06:13:39.184Z,25.90
2022-09-02T06:16:10.665Z,26.09
2022-09-02T06:18:45.752Z,26.00
2022-09-02T06:21:14.615Z,26.08
2022-09-02T06:23:46.010Z,25.96
2022-09-02T06:26:16.286Z,26.33
2022-09-02T06:28:48.035Z,26.25
2022-09-02T06:31:21.093Z,26.50
2022-09-02T06:33:54.451Z,26.78
2022-09-02T06:36:28.406Z,27.10
2022-09-02T06:39:01.751Z,27.16
2022-09-02T06:41:34.764Z,27.05
2022-09-02T06:44:08.045Z,26.86
2022-09-02T06:46:45.173Z,26.93
2022-09-02T06:49:16.423Z,26.98
2022-09-02T06:51:50.079Z,26.90
2022-09-02T06:54:21.523Z,26.89
2022-09-02T06:56:55.433Z,26.64
2022-09-02T06:59:26.907Z,26.75
2022-09-02T07:01:58.297Z,26.78
2022-09-02T07:04:45.933Z,26.66
2022-09-02T07:07:16.839Z,26.35
2022-09-02T07:09:51.453Z,26.33
2022-09-02T07:12:19.756Z,26.56
2022-09-02T07:15:13.704Z,26.43
2022-09-02T07:17:43.068Z,26.50
2022-09-02T07:20:24.323Z,26.43
2022-09-02T07:22:58.440Z,26.43
2022-09-02T07:25:28.579Z,26.69
2022-09-02T07:27:56.420Z,26.58
2022-09-02T07:30:25.416Z,27.01
2022-09-02T07:32:59.881Z,26.91
2022-09-02T07:35:31.241Z,26.61
2022-09-02T07:37:59.752Z,27.13
2022-09-02T07:40:27.610Z,27.18
2022-09-02T07:42:58.616Z,27.46
2022-09-02T07:45:26.878Z,27.62
2022-09-02T07:47:55.094Z,27.75
2022-09-02T07:50:27.114Z,28.10
2022-09-02T07:52:58.330Z,28.27
2022-09-02T07:55:31.018Z,28.40
2022-09-02T07:57:59.690Z,28.24
2022-09-02T08:00:30.084Z,28.21
2022-09-02T08:03:04.995Z,28.21
2022-09-02T08:05:39.567Z,28.27
2022-09-02T08:08:08.382Z,28.10
2022-09-02T08:10:38.123Z,28.02
2022-09-02T08:13:06.885Z,28.01
2022-09-02T08:15:36.347Z,28.00
2022-09-02T08:18:05.088Z,28.33
2022-09-02T08:20:32.655Z,28.46
2022-09-02T08:23:33.228Z,28.73
2022-09-02T08:25:48.011Z,28.45
2022-09-02T08:28:16.083Z,28.76
2022-09-02T08:30:43.835Z,28.93
2022-09-02T08:33:11.390Z,29.28
2022-09-02T08:35:39.445Z,29.47
2022-09-02T08:38:07.330Z,29.75
2022-09-02T08:40:42.018Z,29.74
2022-09-02T08:43:41.923Z,29.63
2022-09-02T08:46:16.580Z,29.50
2022-09-02T08:49:00.309Z,29.07
2022-09-02T08:51:38.351Z,29.06
2022-09-02T08:54:42.939Z,28.61
2022-09-02T08:57:11.544Z,28.34
2022-09-02T09:02:35.737Z,28.09
2022-09-02T09:05:15.397Z,27.98
2022-09-02T09:08:15.866Z,28.33
2022-09-02T09:11:35.278Z,27.93
2022-09-02T09:14:58.179Z,28.12
2022-09-02T09:17:45.556Z,28.29
2022-09-02T09:20:21.283Z,28.60
2022-09-02T09:22:53.035Z,28.10
2022-09-02T09:25:40.873Z,28.22
2022-09-02T09:28:08.467Z,28.08
2022-09-02T09:30:37.016Z,28.10
2022-09-02T09:33:06.292Z,28.24
2022-09-02T09:35:55.425Z,28.17
2022-09-02T09:38:36.200Z,28.03
2022-09-02T09:41:24.083Z,27.80
2022-09-02T09:43:51.685Z,27.90
2022-09-02T09:46:32.428Z,28.25
2022-09-02T09:49:00.144Z,28.10
2022-09-02T09:51:27.709Z,27.92
2022-09-02T09:54:16.182Z,27.84
2022-09-02T09:56:43.824Z,27.82
2022-09-02T09:59:39.690Z,27.79
2022-09-02T10:02:13.007Z,27.65
2022-09-02T10:04:43.349Z,27.56
2022-09-02T10:07:16.300Z,27.50
2022-09-02T10:09:44.006Z,27.28
2022-09-02T10:12:15.093Z,27.24
2022-09-02T10:14:50.192Z,27.17
2022-09-02T10:17:51.014Z,27.19
2022-09-02T10:20:31.788Z,27.17
2022-09-02T10:23:34.134Z,27.05
2022-09-02T10:26:31.807Z,27.02
2022-09-02T10:29:39.674Z,26.93
2022-09-02T10:32:12.855Z,26.78
2022-09-02T10:35:11.912Z,26.76
2022-09-02T10:37:57.201Z,26.75
2022-09-02T10:40:58.123Z,26.61
2022-09-02T10:44:19.585Z,26.65
2022-09-02T10:47:01.475Z,26.53
2022-09-02T10:49:59.863Z,26.48
2022-09-02T10:52:38.555Z,26.25
2022-09-02T10:55:21.632Z,26.11
2022-09-02T10:58:03.979Z,25.66
2022-09-02T11:00:33.071Z,25.15
2022-09-02T11:03:33.530Z,24.65
2022-09-02T11:06:26.235Z,24.49
2022-09-02T11:09:29.541Z,24.42
2022-09-02T11:12:11.105Z,24.12
2022-09-02T11:15:06.755Z,24.04
2022-09-02T11:17:57.277Z,23.89
2022-09-02T11:21:03.728Z,23.78
2022-09-02T11:23:53.034Z,23.64
2022-09-02T11:27:01.196Z,23.93
2022-09-02T11:30:14.476Z,23.91
2022-09-02T11:33:19.440Z,23.83
2022-09-02T11:35:47.483Z,23.75
2022-09-02T11:38:17.691Z,23.34
2022-09-02T11:44:34.623Z,23.29
2022-09-02T11:47:27.052Z,23.46
2022-09-02T11:50:42.382Z,23.46
2022-09-02T11:53:25.474Z,23.54
2022-09-02T11:56:19.100Z,23.40
2022-09-02T11:58:52.894Z,23.54
2022-09-02T12:01:52.718Z,23.53
2022-09-02T12:04:58.668Z,23.40
2022-09-02T12:07:14.368Z,23.67
2022-09-02T12:09:56.683Z,23.37
2022-09-02T12:12:39.482Z,23.38
2022-09-02T12:15:07.637Z,23.34
2022-09-02T12:17:45.503Z,23.44
2022-09-02T12:20:42.498Z,23.54
2022-09-02T12:23:58.438Z,23.91
2022-09-02T12:26:53.056Z,23.96
2022-09-02T12:29:20.702Z,23.67
2022-09-02T12:31:50.536Z,23.53
2022-09-02T12:34:28.733Z,23.49
2022-09-02T12:37:03.112Z,23.29
2022-09-02T12:39:35.309Z,23.73
2022-09-02T12:42:07.572Z,23.71
2022-09-02T12:45:12.093Z,23.50
2022-09-02T12:47:59.980Z,23.26
2022-09-02T12:50:58.569Z,23.34
2022-09-02T12:53:43.605Z,23.37
2022-09-02T12:56:19.549Z,23.34
2022-09-02T12:58:52.174Z,23.14
2022-09-02T13:01:54.282Z,23.29
2022-09-02T13:05:09.608Z,23.70
2022-09-02T13:08:17.757Z,23.48
2022-09-02T13:11:31.970Z,23.32
2022-09-02T13:14:15.317Z,23.29
2022-09-02T13:17:40.968Z,23.49
2022-09-02T13:20:56.146Z,23.17
2022-09-02T13:24:02.026Z,23.21
2022-09-02T13:27:14.894Z,23.24
2022-09-02T13:30:54.849Z,23.07
2022-09-02T13:33:23.026Z,23.00
2022-09-02T13:35:58.599Z,23.08
2022-09-02T13:38:29.588Z,23.16
2022-09-02T13:40:57.896Z,23.17
2022-09-02T13:43:27.221Z,23.30
2022-09-02T13:46:03.226Z,23.28
2022-09-02T13:48:34.983Z,23.38
2022-09-02T13:51:14.986Z,23.52
2022-09-02T13:54:18.875Z,23.65
2022-09-02T13:56:37.053Z,23.74
2022-09-02T13:59:04.599Z,23.80
2022-09-02T14:01:36.119Z,23.89
2022-09-02T14:04:17.246Z,24.08
2022-09-02T14:07:12.135Z,24.01
2022-09-02T14:09:41.581Z,23.96
2022-09-02T14:12:09.708Z,23.98
2022-09-02T14:14:37.659Z,24.07
2022-09-02T14:17:26.441Z,24.09
2022-09-02T14:20:23.153Z,24.32
2022-09-02T14:22:59.640Z,24.26
2022-09-02T14:25:37.462Z,24.22
2022-09-02T14:28:20.227Z,24.11
2022-09-02T14:31:07.641Z,24.20
2022-09-02T14:33:47.559Z,24.34
2022-09-02T14:36:21.438Z,24.73
2022-09-02T14:38:55.729Z,25.03
2022-09-02T14:41:30.450Z,25.00
2022-09-02T14:44:17.977Z,24.88
2022-09-02T14:46:53.968Z,24.87
2022-09-02T14:49:45.640Z,24.52
2022-09-02T14:52:28.717Z,24.20
2022-09-02T14:54:58.684Z,24.05
2022-09-02T14:57:39.073Z,24.06
2022-09-02T15:00:11.594Z,24.20
2022-09-02T15:02:46.458Z,24.18
2022-09-02T15:05:14.963Z,24.28
2022-09-02T15:07:42.851Z,24.60
2022-09-02T15:10:10.935Z,24.68
2022-09-02T15:12:52.507Z,24.86
2022-09-02T15:15:24.750Z,24.89
2022-09-02T15:17:52.453Z,25.18
2022-09-02T15:20:21.824Z,25.45
2022-09-02T15:22:51.596Z,25.13
2022-09-02T15:25:20.146Z,25.01
2022-09-02T15:27:47.719Z,24.83
2022-09-02T15:30:15.765Z,24.70
2022-09-02T15:32:43.480Z,25.05
2022-09-02T15:35:12.558Z,24.74
2022-09-02T15:37:40.536Z,24.94
2022-09-02T15:40:10.605Z,24.98
2022-09-02T15:42:40.689Z,24.99
2022-09-02T15:45:09.904Z,25.11
2022-09-02T15:47:38.739Z,25.62
2022-09-02T15:50:07.324Z,25.29
2022-09-02T15:52:36.260Z,25.19
2022-09-02T15:55:05.261Z,25.10
2022-09-02T15:57:34.876Z,25.09
2022-09-02T16:00:02.624Z,24.84
2022-09-02T16:02:39.955Z,24.63
2022-09-02T16:05:08.259Z,25.04
2022-09-02T16:07:37.014Z,24.65
2022-09-02T16:10:04.948Z,24.29
2022-09-02T16:12:33.166Z,24.15
2022-09-02T16:15:01.914Z,24.05
2022-09-02T16:17:29.861Z,24.18
2022-09-02T16:19:57.644Z,24.64
2022-09-02T16:22:25.298Z,24.23
2022-09-02T16:24:53.658Z,24.21
2022-09-02T16:27:41.320Z,24.21
2022-09-02T16:30:09.414Z,24.13
2022-09-02T16:32:41.423Z,24.06
2022-09-02T16:35:09.883Z,24.14
2022-09-02T16:37:37.376Z,24.28
2022-09-02T16:40:05.764Z,24.20
2022-09-02T16:42:37.434Z,24.17
2022-09-02T16:45:08.580Z,24.17
2022-09-02T16:47:36.241Z,24.22
2022-09-02T16:50:03.968Z,24.32
2022-09-02T16:52:34.936Z,24.28
2022-09-02T16:55:02.492Z,24.23
2022-09-02T16:57:30.847Z,24.22
2022-09-02T16:59:58.454Z,24.20
2022-09-02T17:02:26.141Z,24.41
2022-09-02T17:04:53.701Z,24.37
2022-09-02T17:07:21.844Z,24.38
2022-09-02T17:09:49.413Z,24.46
2022-09-02T17:12:18.344Z,24.34
2022-09-02T17:14:47.228Z,24.38
2022-09-02T17:17:17.213Z,24.56
2022-09-02T17:19:46.010Z,24.55
2022-09-02T17:22:16.012Z,24.14
2022-09-02T17:24:44.952Z,24.09
2022-09-02T17:27:13.230Z,24.60
2022-09-02T17:29:49.627Z,24.06
2022-09-02T17:32:21.513Z,23.68
2022-09-02T17:34:51.123Z,23.48
2022-09-02T17:37:22.306Z,23.60
2022-09-02T17:39:53.197Z,23.53
2022-09-02T17:42:26.642Z,23.47
2022-09-02T17:44:56.776Z,23.45
2022-09-02T17:47:45.935Z,23.64
2022-09-02T17:50:17.985Z,23.60
2022-09-02T17:52:48.239Z,23.65
2022-09-02T17:55:19.872Z,23.58
2022-09-02T17:58:17.790Z,23.60
2022-09-02T18:00:47.602Z,23.54
2022-09-02T18:03:46.128Z,23.62
2022-09-02T18:06:33.057Z,23.65
2022-09-02T18:09:11.111Z,23.66
2022-09-02T18:11:40.800Z,23.72
2022-09-02T18:14:37.761Z,23.65
2022-09-02T18:17:41.073Z,23.75
2022-09-02T18:20:43.579Z,23.80
2022-09-02T18:23:48.897Z,23.74
2022-09-02T18:26:32.688Z,23.66
2022-09-02T18:29:33.054Z,23.67
2022-09-02T18:32:30.830Z,23.65
2022-09-02T18:35:32.482Z,23.73
2022-09-02T18:38:28.224Z,23.72
2022-09-02T18:41:23.227Z,23.74
2022-09-02T18:44:16.378Z,23.68
2022-09-02T18:46:55.035Z,23.67
2022-09-02T18:49:25.812Z,23.67
2022-09-02T18:52:10.061Z,23.62
2022-09-02T18:55:10.344Z,23.60
2022-09-02T18:57:59.762Z,23.57
2022-09-02T19:00:31.073Z,23.57
2022-09-02T19:03:05.949Z,23.71
2022-09-02T19:05:36.882Z,23.64
2022-09-02T19:08:38.046Z,23.50
2022-09-02T19:11:17.286Z,23.53
2022-09-02T19:13:55.649Z,23.49
2022-09-02T19:16:30.314Z,23.35
2022-09-02T19:18:58.707Z,23.38
2022-09-02T19:21:55.153Z,23.31
2022-09-02T19:24:49.473Z,23.32
2022-09-02T19:27:30.074Z,23.31
2022-09-02T19:30:06.676Z,23.32
2022-09-02T19:32:39.217Z,23.40
2022-09-02T19:35:16.366Z,23.32
2022-09-02T19:37:51.391Z,23.33
2022-09-02T19:40:37.474Z,23.37
2022-09-02T19:43:07.690Z,23.33
2022-09-02T19:45:39.717Z,23.53
2022-09-02T19:48:11.309Z,23.68
2022-09-02T19:50:44.922Z,24.14
2022-09-02T19:53:25.364Z,23.81
2022-09-02T19:55:57.114Z,23.49
2022-09-02T19:58:28.808Z,23.09
2022-09-02T20:00:59.677Z,23.03
2022-09-02T20:03:28.307Z,23.01
2022-09-02T20:05:57.359Z,23.01
2022-09-02T20:08:31.261Z,23.10
2022-09-02T20:11:02.387Z,23.17
2022-09-02T20:13:41.347Z,23.19
2022-09-02T20:16:24.666Z,23.15
2022-09-02T20:18:54.100Z,23.05
2022-09-02T20:21:51.765Z,23.02
2022-09-02T20:24:49.764Z,23.01
2022-09-02T20:28:04.762Z,22.86
2022-09-02T20:30:37.364Z,22.94
2022-09-02T20:33:20.175Z,23.02
2022-09-02T20:36:31.592Z,23.02
2022-09-02T20:39:43.126Z,23.05
2022-09-02T20:42:40.424Z,23.12
2022-09-02T20:45:10.950Z,23.07
2022-09-02T20:47:58.451Z,23.12
2022-09-02T20:50:49.835Z,23.19
2022-09-02T20:53:41.156Z,23.10
2022-09-02T20:56:42.534Z,23.11
2022-09-02T20:59:31.255Z,23.16
2022-09-02T21:02:05.263Z,23.10
2022-09-02T21:04:46.690Z,23.15
2022-09-02T21:07:42.769Z,23.13
2022-09-02T21:10:19.299Z,23.13
2022-09-02T21:13:23.298Z,23.10
2022-09-02T21:15:57.133Z,23.14
2022-09-02T21:18:47.391Z,23.13
2022-09-02T21:21:49.201Z,23.12
2022-09-02T21:24:44.026Z,23.11
2022-09-02T21:27:20.589Z,23.06
2022-09-02T21:30:02.533Z,22.98
2022-09-02T21:33:01.022Z,22.97
2022-09-02T21:35:41.508Z,22.96
2022-09-02T21:38:19.106Z,23.12
2022-09-02T21:41:38.857Z,23.05
2022-09-02T21:44:28.338Z,23.00
2022-09-02T21:47:24.337Z,23.00
2022-09-02T21:50:16.556Z,23.01
2022-09-02T21:53:17.697Z,22.98
2022-09-02T21:56:08.453Z,22.97
2022-09-02T21:59:06.306Z,22.92
2022-09-02T22:02:25.448Z,23.12
2022-09-02T22:05:39.211Z,23.20
2022-09-02T22:08:58.557Z,23.06
2022-09-02T22:11:48.426Z,23.06
2022-09-02T22:14:39.511Z,23.06
2022-09-02T22:17:26.972Z,22.88
2022-09-02T22:20:02.421Z,22.61
2022-09-02T22:22:38.993Z,22.46
2022-09-02T22:25:27.627Z,22.44
2022-09-02T22:28:05.901Z,22.47
2022-09-02T22:30:41.844Z,22.50
2022-09-02T22:33:16.330Z,22.65
2022-09-02T22:35:57.603Z,22.51
2022-09-02T22:38:48.997Z,22.64
2022-09-02T22:41:31.066Z,22.59
2022-09-02T22:44:22.848Z,22.44
2022-09-02T22:47:17.365Z,22.43
2022-09-02T22:50:16.566Z,22.64
2022-09-02T22:52:57.417Z,22.67
2022-09-02T22:56:04.491Z,22.44
2022-09-02T22:59:08.395Z,22.35
2022-09-02T23:02:15.912Z,22.37
2022-09-02T23:05:38.329Z,22.35
2022-09-02T23:08:12.475Z,22.33
2022-09-02T23:11:12.864Z,22.84
2022-09-02T23:13:53.365Z,22.54
2022-09-02T23:16:47.760Z,22.41
2022-09-02T23:19:45.337Z,22.51
2022-09-02T23:23:04.617Z,22.01
2022-09-02T23:32:03.360Z,22.26
2022-09-02T23:35:07.657Z,22.10
2022-09-02T23:38:24.348Z,21.99
2022-09-02T23:41:12.511Z,21.82
2022-09-02T23:43:43.524Z,21.72
2022-09-02T23:46:45.796Z,21.81
2022-09-02T23:50:04.433Z,21.87
2022-09-02T23:53:09.558Z,21.70
2022-09-02T23:56:32.772Z,21.70
2022-09-02T23:59:24.693Z,21.79
